sensor_id;sensor_type;location;lat;lon;timestamp;P1;durP1;ratioP1;P2;durP2;ratioP2
2538;SDS011;1280;49.760;9.664;2023-10-19T00:00:01;34.50;;;23.80;;
2538;SDS011;1280;49.760;9.664;2023-10-19T00:02:49;37.43;;;24.90;;
2538;SDS011;1280;49.760;9.664;2023-10-19T00:05:21;33.90;;;23.50;;
2538;SDS011;1280;49.760;9.664;2023-10-19T00:07:52;39.00;;;25.37;;
2538;SDS011;1280;49.760;9.664;2023-10-19T00:10:23;38.77;;;25.70;;
2538;SDS011;1280;49.760;9.664;2023-10-19T00:12:57;36.27;;;24.17;;
2538;SDS011;1280;49.760;9.664;2023-10-19T00:15:30;37.63;;;26.07;;
2538;SDS011;1280;49.760;9.664;2023-10-19T00:18:01;37.30;;;25.60;;
2538;SDS011;1280;49.760;9.664;2023-10-19T00:20:35;39.07;;;25.97;;
2538;SDS011;1280;49.760;9.664;2023-10-19T00:23:15;39.20;;;25.60;;
2538;SDS011;1280;49.760;9.664;2023-10-19T00:25:45;32.97;;;25.50;;
2538;SDS011;1280;49.760;9.664;2023-10-19T00:28:19;42.33;;;27.80;;
2538;SDS011;1280;49.760;9.664;2023-10-19T00:30:49;38.87;;;26.30;;
2538;SDS011;1280;49.760;9.664;2023-10-19T00:33:18;39.37;;;27.53;;
2538;SDS011;1280;49.760;9.664;2023-10-19T00:35:48;43.73;;;29.90;;
2538;SDS011;1280;49.760;9.664;2023-10-19T00:38:26;44.60;;;30.97;;
2538;SDS011;1280;49.760;9.664;2023-10-19T00:41:06;44.77;;;30.77;;
2538;SDS011;1280;49.760;9.664;2023-10-19T00:43:41;46.80;;;31.00;;
2538;SDS011;1280;49.760;9.664;2023-10-19T00:46:11;44.13;;;30.00;;
2538;SDS011;1280;49.760;9.664;2023-10-19T00:48:53;48.60;;;30.97;;
2538;SDS011;1280;49.760;9.664;2023-10-19T00:51:23;51.23;;;32.93;;
2538;SDS011;1280;49.760;9.664;2023-10-19T00:54:00;47.73;;;31.47;;
2538;SDS011;1280;49.760;9.664;2023-10-19T00:56:35;49.80;;;33.80;;
2538;SDS011;1280;49.760;9.664;2023-10-19T00:59:04;52.00;;;33.70;;
2538;SDS011;1280;49.760;9.664;2023-10-19T01:01:41;52.63;;;33.13;;
2538;SDS011;1280;49.760;9.664;2023-10-19T01:04:12;54.50;;;34.70;;
2538;SDS011;1280;49.760;9.664;2023-10-19T01:06:43;58.07;;;34.47;;
2538;SDS011;1280;49.760;9.664;2023-10-19T01:09:25;58.10;;;37.10;;
2538;SDS011;1280;49.760;9.664;2023-10-19T01:11:57;57.93;;;34.43;;
2538;SDS011;1280;49.760;9.664;2023-10-19T01:14:30;58.03;;;35.60;;
2538;SDS011;1280;49.760;9.664;2023-10-19T01:16:59;54.80;;;34.13;;
2538;SDS011;1280;49.760;9.664;2023-10-19T01:19:29;59.40;;;35.60;;
2538;SDS011;1280;49.760;9.664;2023-10-19T01:21:57;52.00;;;33.70;;
2538;SDS011;1280;49.760;9.664;2023-10-19T01:24:32;53.60;;;33.70;;
2538;SDS011;1280;49.760;9.664;2023-10-19T01:27:06;55.40;;;34.83;;
2538;SDS011;1280;49.760;9.664;2023-10-19T01:29:36;55.40;;;32.70;;
2538;SDS011;1280;49.760;9.664;2023-10-19T01:32:06;60.40;;;36.17;;
2538;SDS011;1280;49.760;9.664;2023-10-19T01:34:35;52.97;;;33.87;;
2538;SDS011;1280;49.760;9.664;2023-10-19T01:37:04;55.73;;;34.33;;
2538;SDS011;1280;49.760;9.664;2023-10-19T01:39:34;60.80;;;37.43;;
2538;SDS011;1280;49.760;9.664;2023-10-19T01:42:02;56.63;;;35.00;;
2538;SDS011;1280;49.760;9.664;2023-10-19T01:44:31;54.40;;;34.37;;
2538;SDS011;1280;49.760;9.664;2023-10-19T01:47:02;57.80;;;35.80;;
2538;SDS011;1280;49.760;9.664;2023-10-19T01:49:33;53.73;;;33.07;;
2538;SDS011;1280;49.760;9.664;2023-10-19T01:52:00;56.23;;;34.90;;
2538;SDS011;1280;49.760;9.664;2023-10-19T01:54:28;53.03;;;32.70;;
2538;SDS011;1280;49.760;9.664;2023-10-19T01:56:57;53.47;;;34.23;;
2538;SDS011;1280;49.760;9.664;2023-10-19T01:59:26;54.67;;;33.30;;
2538;SDS011;1280;49.760;9.664;2023-10-19T02:01:55;58.07;;;35.03;;
2538;SDS011;1280;49.760;9.664;2023-10-19T02:04:24;57.60;;;32.63;;
2538;SDS011;1280;49.760;9.664;2023-10-19T02:06:52;51.93;;;33.60;;
2538;SDS011;1280;49.760;9.664;2023-10-19T02:09:20;54.00;;;33.50;;
2538;SDS011;1280;49.760;9.664;2023-10-19T02:11:49;59.77;;;33.77;;
2538;SDS011;1280;49.760;9.664;2023-10-19T02:14:27;54.43;;;33.53;;
2538;SDS011;1280;49.760;9.664;2023-10-19T02:16:59;48.73;;;32.50;;
2538;SDS011;1280;49.760;9.664;2023-10-19T02:19:29;55.67;;;32.60;;
2538;SDS011;1280;49.760;9.664;2023-10-19T02:21:59;51.47;;;32.50;;
2538;SDS011;1280;49.760;9.664;2023-10-19T02:24:30;55.93;;;33.17;;
2538;SDS011;1280;49.760;9.664;2023-10-19T02:27:01;48.30;;;32.30;;
2538;SDS011;1280;49.760;9.664;2023-10-19T02:29:30;53.00;;;32.40;;
2538;SDS011;1280;49.760;9.664;2023-10-19T02:32:02;55.67;;;33.07;;
2538;SDS011;1280;49.760;9.664;2023-10-19T02:34:30;53.40;;;32.70;;
2538;SDS011;1280;49.760;9.664;2023-10-19T02:36:58;53.93;;;33.63;;
2538;SDS011;1280;49.760;9.664;2023-10-19T02:39:27;49.83;;;31.17;;
2538;SDS011;1280;49.760;9.664;2023-10-19T02:41:55;49.70;;;31.47;;
2538;SDS011;1280;49.760;9.664;2023-10-19T02:44:22;55.87;;;32.43;;
2538;SDS011;1280;49.760;9.664;2023-10-19T02:46:53;53.43;;;34.13;;
2538;SDS011;1280;49.760;9.664;2023-10-19T02:49:27;49.37;;;32.80;;
2538;SDS011;1280;49.760;9.664;2023-10-19T02:51:56;54.37;;;34.40;;
2538;SDS011;1280;49.760;9.664;2023-10-19T02:54:29;49.57;;;31.40;;
2538;SDS011;1280;49.760;9.664;2023-10-19T02:56:59;58.70;;;35.47;;
2538;SDS011;1280;49.760;9.664;2023-10-19T02:59:27;52.17;;;32.13;;
2538;SDS011;1280;49.760;9.664;2023-10-19T03:01:58;58.33;;;33.17;;
2538;SDS011;1280;49.760;9.664;2023-10-19T03:04:28;57.30;;;33.10;;
2538;SDS011;1280;49.760;9.664;2023-10-19T03:06:57;55.50;;;34.30;;
2538;SDS011;1280;49.760;9.664;2023-10-19T03:09:25;59.97;;;34.70;;
2538;SDS011;1280;49.760;9.664;2023-10-19T03:11:56;56.57;;;33.53;;
2538;SDS011;1280;49.760;9.664;2023-10-19T03:14:30;51.60;;;33.03;;
2538;SDS011;1280;49.760;9.664;2023-10-19T03:17:00;42.47;;;29.60;;
2538;SDS011;1280;49.760;9.664;2023-10-19T03:19:29;48.07;;;29.40;;
2538;SDS011;1280;49.760;9.664;2023-10-19T03:21:56;43.07;;;28.07;;
2538;SDS011;1280;49.760;9.664;2023-10-19T03:24:26;44.20;;;28.57;;
2538;SDS011;1280;49.760;9.664;2023-10-19T03:27:03;45.07;;;30.27;;
2538;SDS011;1280;49.760;9.664;2023-10-19T03:29:39;39.70;;;26.63;;
2538;SDS011;1280;49.760;9.664;2023-10-19T03:32:14;52.47;;;31.07;;
2538;SDS011;1280;49.760;9.664;2023-10-19T03:34:43;41.80;;;25.50;;
2538;SDS011;1280;49.760;9.664;2023-10-19T03:37:14;41.10;;;25.80;;
2538;SDS011;1280;49.760;9.664;2023-10-19T03:39:45;44.03;;;28.90;;
2538;SDS011;1280;49.760;9.664;2023-10-19T03:42:13;41.60;;;27.50;;
2538;SDS011;1280;49.760;9.664;2023-10-19T03:44:41;36.73;;;23.70;;
2538;SDS011;1280;49.760;9.664;2023-10-19T03:47:22;33.50;;;23.17;;
2538;SDS011;1280;49.760;9.664;2023-10-19T03:49:53;39.73;;;25.50;;
2538;SDS011;1280;49.760;9.664;2023-10-19T03:52:23;38.27;;;24.80;;
2538;SDS011;1280;49.760;9.664;2023-10-19T03:54:57;34.03;;;23.30;;
2538;SDS011;1280;49.760;9.664;2023-10-19T03:57:25;36.90;;;23.23;;
2538;SDS011;1280;49.760;9.664;2023-10-19T03:59:56;33.87;;;23.70;;
2538;SDS011;1280;49.760;9.664;2023-10-19T04:02:27;35.93;;;22.20;;
2538;SDS011;1280;49.760;9.664;2023-10-19T04:05:01;33.80;;;21.97;;
2538;SDS011;1280;49.760;9.664;2023-10-19T04:07:30;32.30;;;21.83;;
2538;SDS011;1280;49.760;9.664;2023-10-19T04:09:58;34.03;;;23.47;;
2538;SDS011;1280;49.760;9.664;2023-10-19T04:12:56;35.47;;;23.73;;
2538;SDS011;1280;49.760;9.664;2023-10-19T04:15:27;38.67;;;25.47;;
2538;SDS011;1280;49.760;9.664;2023-10-19T04:18:01;32.80;;;21.63;;
2538;SDS011;1280;49.760;9.664;2023-10-19T04:20:41;35.13;;;23.77;;
2538;SDS011;1280;49.760;9.664;2023-10-19T04:23:21;32.43;;;21.73;;
2538;SDS011;1280;49.760;9.664;2023-10-19T04:25:53;32.63;;;21.97;;
2538;SDS011;1280;49.760;9.664;2023-10-19T04:28:24;37.37;;;25.63;;
2538;SDS011;1280;49.760;9.664;2023-10-19T04:31:00;42.77;;;26.20;;
2538;SDS011;1280;49.760;9.664;2023-10-19T04:33:33;33.50;;;23.13;;
2538;SDS011;1280;49.760;9.664;2023-10-19T04:36:01;31.47;;;21.83;;
2538;SDS011;1280;49.760;9.664;2023-10-19T04:38:29;36.20;;;25.40;;
2538;SDS011;1280;49.760;9.664;2023-10-19T04:41:06;33.20;;;23.30;;
2538;SDS011;1280;49.760;9.664;2023-10-19T04:43:34;34.63;;;23.47;;
2538;SDS011;1280;49.760;9.664;2023-10-19T04:46:07;33.70;;;23.97;;
2538;SDS011;1280;49.760;9.664;2023-10-19T04:48:39;31.70;;;21.70;;
2538;SDS011;1280;49.760;9.664;2023-10-19T04:51:08;42.63;;;27.10;;
2538;SDS011;1280;49.760;9.664;2023-10-19T04:53:37;34.60;;;23.43;;
2538;SDS011;1280;49.760;9.664;2023-10-19T04:56:05;33.47;;;23.00;;
2538;SDS011;1280;49.760;9.664;2023-10-19T04:58:36;39.37;;;23.90;;
2538;SDS011;1280;49.760;9.664;2023-10-19T05:01:06;36.50;;;24.23;;
2538;SDS011;1280;49.760;9.664;2023-10-19T05:03:37;41.03;;;23.07;;
2538;SDS011;1280;49.760;9.664;2023-10-19T05:06:07;31.53;;;22.20;;
2538;SDS011;1280;49.760;9.664;2023-10-19T05:08:35;32.90;;;21.83;;
2538;SDS011;1280;49.760;9.664;2023-10-19T05:11:04;32.90;;;23.17;;
2538;SDS011;1280;49.760;9.664;2023-10-19T05:13:32;32.50;;;22.63;;
2538;SDS011;1280;49.760;9.664;2023-10-19T05:16:01;32.50;;;22.50;;
2538;SDS011;1280;49.760;9.664;2023-10-19T05:18:31;34.60;;;24.60;;
2538;SDS011;1280;49.760;9.664;2023-10-19T05:21:01;35.67;;;25.00;;
2538;SDS011;1280;49.760;9.664;2023-10-19T05:23:30;36.57;;;24.90;;
2538;SDS011;1280;49.760;9.664;2023-10-19T05:25:59;39.13;;;25.03;;
2538;SDS011;1280;49.760;9.664;2023-10-19T05:28:31;34.80;;;23.70;;
2538;SDS011;1280;49.760;9.664;2023-10-19T05:31:01;32.23;;;22.80;;
2538;SDS011;1280;49.760;9.664;2023-10-19T05:33:31;35.33;;;24.17;;
2538;SDS011;1280;49.760;9.664;2023-10-19T05:36:02;38.60;;;25.70;;
2538;SDS011;1280;49.760;9.664;2023-10-19T05:38:30;32.70;;;23.63;;
2538;SDS011;1280;49.760;9.664;2023-10-19T05:40:59;34.73;;;23.73;;
2538;SDS011;1280;49.760;9.664;2023-10-19T05:43:27;35.87;;;23.97;;
2538;SDS011;1280;49.760;9.664;2023-10-19T05:45:56;32.70;;;22.57;;
2538;SDS011;1280;49.760;9.664;2023-10-19T05:48:24;40.50;;;25.60;;
2538;SDS011;1280;49.760;9.664;2023-10-19T05:50:52;40.40;;;26.53;;
2538;SDS011;1280;49.760;9.664;2023-10-19T05:53:22;36.17;;;24.63;;
2538;SDS011;1280;49.760;9.664;2023-10-19T05:55:50;43.53;;;26.60;;
2538;SDS011;1280;49.760;9.664;2023-10-19T05:58:18;38.87;;;23.70;;
2538;SDS011;1280;49.760;9.664;2023-10-19T06:00:47;42.03;;;26.53;;
2538;SDS011;1280;49.760;9.664;2023-10-19T06:03:18;48.60;;;28.53;;
2538;SDS011;1280;49.760;9.664;2023-10-19T06:05:46;40.60;;;26.17;;
2538;SDS011;1280;49.760;9.664;2023-10-19T06:08:15;37.20;;;23.77;;
2538;SDS011;1280;49.760;9.664;2023-10-19T06:10:45;39.60;;;26.27;;
2538;SDS011;1280;49.760;9.664;2023-10-19T06:13:18;45.97;;;29.57;;
2538;SDS011;1280;49.760;9.664;2023-10-19T06:15:48;34.53;;;24.97;;
2538;SDS011;1280;49.760;9.664;2023-10-19T06:18:18;38.90;;;25.00;;
2538;SDS011;1280;49.760;9.664;2023-10-19T06:20:46;38.63;;;26.67;;
2538;SDS011;1280;49.760;9.664;2023-10-19T06:23:18;36.93;;;25.10;;
2538;SDS011;1280;49.760;9.664;2023-10-19T06:25:48;37.40;;;24.60;;
2538;SDS011;1280;49.760;9.664;2023-10-19T06:28:17;39.50;;;24.23;;
2538;SDS011;1280;49.760;9.664;2023-10-19T06:30:45;42.97;;;26.53;;
2538;SDS011;1280;49.760;9.664;2023-10-19T06:33:14;40.87;;;27.30;;
2538;SDS011;1280;49.760;9.664;2023-10-19T06:35:42;40.20;;;27.40;;
2538;SDS011;1280;49.760;9.664;2023-10-19T06:38:10;43.07;;;26.53;;
2538;SDS011;1280;49.760;9.664;2023-10-19T06:40:38;42.87;;;28.63;;
2538;SDS011;1280;49.760;9.664;2023-10-19T06:43:08;40.77;;;26.20;;
2538;SDS011;1280;49.760;9.664;2023-10-19T06:45:37;43.50;;;28.20;;
2538;SDS011;1280;49.760;9.664;2023-10-19T06:48:07;38.30;;;25.57;;
2538;SDS011;1280;49.760;9.664;2023-10-19T06:50:36;40.53;;;27.30;;
2538;SDS011;1280;49.760;9.664;2023-10-19T06:53:04;42.33;;;26.40;;
2538;SDS011;1280;49.760;9.664;2023-10-19T06:55:32;44.73;;;28.80;;
2538;SDS011;1280;49.760;9.664;2023-10-19T06:58:00;45.70;;;30.10;;
2538;SDS011;1280;49.760;9.664;2023-10-19T07:00:30;51.47;;;30.47;;
2538;SDS011;1280;49.760;9.664;2023-10-19T07:03:00;51.37;;;29.33;;
2538;SDS011;1280;49.760;9.664;2023-10-19T07:05:29;41.23;;;27.00;;
2538;SDS011;1280;49.760;9.664;2023-10-19T07:07:57;42.40;;;26.47;;
2538;SDS011;1280;49.760;9.664;2023-10-19T07:10:26;44.27;;;28.07;;
2538;SDS011;1280;49.760;9.664;2023-10-19T07:12:55;45.73;;;27.90;;
2538;SDS011;1280;49.760;9.664;2023-10-19T07:15:24;41.93;;;28.10;;
2538;SDS011;1280;49.760;9.664;2023-10-19T07:17:55;42.97;;;27.73;;
2538;SDS011;1280;49.760;9.664;2023-10-19T07:20:25;40.33;;;25.03;;
2538;SDS011;1280;49.760;9.664;2023-10-19T07:22:56;41.00;;;27.10;;
2538;SDS011;1280;49.760;9.664;2023-10-19T07:25:26;45.77;;;26.07;;
2538;SDS011;1280;49.760;9.664;2023-10-19T07:27:55;48.63;;;28.37;;
2538;SDS011;1280;49.760;9.664;2023-10-19T07:30:26;43.93;;;27.60;;
2538;SDS011;1280;49.760;9.664;2023-10-19T07:32:56;63.87;;;34.60;;
2538;SDS011;1280;49.760;9.664;2023-10-19T07:35:26;48.60;;;28.47;;
2538;SDS011;1280;49.760;9.664;2023-10-19T07:37:54;44.40;;;29.57;;
2538;SDS011;1280;49.760;9.664;2023-10-19T07:40:23;48.07;;;29.13;;
2538;SDS011;1280;49.760;9.664;2023-10-19T07:42:52;45.30;;;28.63;;
2538;SDS011;1280;49.760;9.664;2023-10-19T07:45:21;45.30;;;28.13;;
2538;SDS011;1280;49.760;9.664;2023-10-19T07:47:49;49.10;;;28.40;;
2538;SDS011;1280;49.760;9.664;2023-10-19T07:50:19;58.27;;;31.33;;
2538;SDS011;1280;49.760;9.664;2023-10-19T07:52:50;54.03;;;30.17;;
2538;SDS011;1280;49.760;9.664;2023-10-19T07:55:20;62.03;;;32.97;;
2538;SDS011;1280;49.760;9.664;2023-10-19T07:57:50;56.40;;;32.43;;
2538;SDS011;1280;49.760;9.664;2023-10-19T08:00:19;54.13;;;31.23;;
2538;SDS011;1280;49.760;9.664;2023-10-19T08:02:50;74.03;;;38.37;;
2538;SDS011;1280;49.760;9.664;2023-10-19T08:05:21;65.93;;;36.37;;
2538;SDS011;1280;49.760;9.664;2023-10-19T08:07:50;66.20;;;35.87;;
2538;SDS011;1280;49.760;9.664;2023-10-19T08:10:18;64.03;;;35.80;;
2538;SDS011;1280;49.760;9.664;2023-10-19T08:12:48;77.37;;;39.13;;
2538;SDS011;1280;49.760;9.664;2023-10-19T08:15:16;64.37;;;35.57;;
2538;SDS011;1280;49.760;9.664;2023-10-19T08:17:47;76.33;;;37.00;;
2538;SDS011;1280;49.760;9.664;2023-10-19T08:20:17;74.90;;;38.07;;
2538;SDS011;1280;49.760;9.664;2023-10-19T08:22:51;76.87;;;38.43;;
2538;SDS011;1280;49.760;9.664;2023-10-19T08:25:21;72.13;;;36.80;;
2538;SDS011;1280;49.760;9.664;2023-10-19T08:27:49;71.50;;;37.80;;
2538;SDS011;1280;49.760;9.664;2023-10-19T08:30:19;86.37;;;38.90;;
2538;SDS011;1280;49.760;9.664;2023-10-19T08:32:53;75.13;;;36.20;;
2538;SDS011;1280;49.760;9.664;2023-10-19T08:35:23;75.07;;;37.47;;
2538;SDS011;1280;49.760;9.664;2023-10-19T08:37:54;69.93;;;38.10;;
2538;SDS011;1280;49.760;9.664;2023-10-19T08:40:24;69.53;;;36.33;;
2538;SDS011;1280;49.760;9.664;2023-10-19T08:42:54;85.43;;;39.57;;
2538;SDS011;1280;49.760;9.664;2023-10-19T08:45:22;79.97;;;37.70;;
2538;SDS011;1280;49.760;9.664;2023-10-19T08:47:53;75.47;;;37.23;;
2538;SDS011;1280;49.760;9.664;2023-10-19T08:50:30;77.83;;;38.27;;
2538;SDS011;1280;49.760;9.664;2023-10-19T08:53:02;80.43;;;40.77;;
2538;SDS011;1280;49.760;9.664;2023-10-19T08:55:34;90.50;;;43.13;;
2538;SDS011;1280;49.760;9.664;2023-10-19T08:58:15;79.47;;;40.90;;
2538;SDS011;1280;49.760;9.664;2023-10-19T09:00:45;89.23;;;43.30;;
2538;SDS011;1280;49.760;9.664;2023-10-19T09:03:20;79.23;;;40.40;;
2538;SDS011;1280;49.760;9.664;2023-10-19T09:05:49;89.70;;;41.13;;
2538;SDS011;1280;49.760;9.664;2023-10-19T09:08:18;91.70;;;39.53;;
2538;SDS011;1280;49.760;9.664;2023-10-19T09:10:49;76.80;;;39.00;;
2538;SDS011;1280;49.760;9.664;2023-10-19T09:13:20;87.90;;;40.17;;
2538;SDS011;1280;49.760;9.664;2023-10-19T09:15:50;81.87;;;38.50;;
2538;SDS011;1280;49.760;9.664;2023-10-19T09:18:20;85.47;;;40.00;;
2538;SDS011;1280;49.760;9.664;2023-10-19T09:20:50;73.53;;;37.97;;
2538;SDS011;1280;49.760;9.664;2023-10-19T09:23:22;56.80;;;27.90;;
2538;SDS011;1280;49.760;9.664;2023-10-19T09:25:55;52.77;;;26.70;;
2538;SDS011;1280;49.760;9.664;2023-10-19T09:28:24;85.83;;;25.73;;
2538;SDS011;1280;49.760;9.664;2023-10-19T09:30:52;59.50;;;27.37;;
2538;SDS011;1280;49.760;9.664;2023-10-19T09:33:20;65.90;;;32.93;;
2538;SDS011;1280;49.760;9.664;2023-10-19T09:35:50;71.87;;;37.27;;
2538;SDS011;1280;49.760;9.664;2023-10-19T09:38:19;63.77;;;32.90;;
2538;SDS011;1280;49.760;9.664;2023-10-19T09:40:51;74.13;;;38.07;;
2538;SDS011;1280;49.760;9.664;2023-10-19T09:43:22;86.37;;;40.70;;
2538;SDS011;1280;49.760;9.664;2023-10-19T09:45:57;80.93;;;40.17;;
2538;SDS011;1280;49.760;9.664;2023-10-19T09:48:28;74.67;;;38.53;;
2538;SDS011;1280;49.760;9.664;2023-10-19T09:50:56;90.93;;;42.23;;
2538;SDS011;1280;49.760;9.664;2023-10-19T09:53:26;86.40;;;41.87;;
2538;SDS011;1280;49.760;9.664;2023-10-19T09:55:56;89.70;;;42.73;;
2538;SDS011;1280;49.760;9.664;2023-10-19T09:58:27;87.50;;;42.20;;
2538;SDS011;1280;49.760;9.664;2023-10-19T10:00:58;90.33;;;41.67;;
2538;SDS011;1280;49.760;9.664;2023-10-19T10:06:13;85.77;;;41.77;;
2538;SDS011;1280;49.760;9.664;2023-10-19T10:08:44;89.23;;;42.53;;
2538;SDS011;1280;49.760;9.664;2023-10-19T10:11:15;91.53;;;43.17;;
2538;SDS011;1280;49.760;9.664;2023-10-19T10:13:45;92.00;;;44.17;;
2538;SDS011;1280;49.760;9.664;2023-10-19T10:16:17;98.23;;;44.10;;
2538;SDS011;1280;49.760;9.664;2023-10-19T10:18:48;90.37;;;44.03;;
2538;SDS011;1280;49.760;9.664;2023-10-19T10:21:18;76.30;;;40.00;;
2538;SDS011;1280;49.760;9.664;2023-10-19T10:23:50;80.93;;;40.20;;
2538;SDS011;1280;49.760;9.664;2023-10-19T10:26:20;85.27;;;42.23;;
2538;SDS011;1280;49.760;9.664;2023-10-19T10:29:07;74.50;;;39.53;;
2538;SDS011;1280;49.760;9.664;2023-10-19T10:31:41;78.00;;;43.07;;
2538;SDS011;1280;49.760;9.664;2023-10-19T10:34:10;78.23;;;40.40;;
2538;SDS011;1280;49.760;9.664;2023-10-19T10:36:57;82.77;;;40.93;;
2538;SDS011;1280;49.760;9.664;2023-10-19T10:39:30;86.07;;;42.53;;
2538;SDS011;1280;49.760;9.664;2023-10-19T10:41:59;70.93;;;37.90;;
2538;SDS011;1280;49.760;9.664;2023-10-19T10:44:36;73.70;;;37.00;;
2538;SDS011;1280;49.760;9.664;2023-10-19T10:47:07;72.90;;;38.87;;
2538;SDS011;1280;49.760;9.664;2023-10-19T10:49:46;78.13;;;39.57;;
2538;SDS011;1280;49.760;9.664;2023-10-19T10:52:25;73.27;;;36.77;;
2538;SDS011;1280;49.760;9.664;2023-10-19T10:54:57;83.37;;;39.80;;
2538;SDS011;1280;49.760;9.664;2023-10-19T10:57:33;74.83;;;39.17;;
2538;SDS011;1280;49.760;9.664;2023-10-19T11:00:06;77.13;;;41.07;;
2538;SDS011;1280;49.760;9.664;2023-10-19T11:02:41;72.13;;;39.40;;
2538;SDS011;1280;49.760;9.664;2023-10-19T11:05:18;83.60;;;40.27;;
2538;SDS011;1280;49.760;9.664;2023-10-19T11:08:03;78.47;;;39.40;;
2538;SDS011;1280;49.760;9.664;2023-10-19T11:10:37;75.80;;;38.87;;
2538;SDS011;1280;49.760;9.664;2023-10-19T11:13:06;79.57;;;40.50;;
2538;SDS011;1280;49.760;9.664;2023-10-19T11:15:35;95.03;;;39.40;;
2538;SDS011;1280;49.760;9.664;2023-10-19T11:18:04;78.10;;;39.50;;
2538;SDS011;1280;49.760;9.664;2023-10-19T11:20:34;82.77;;;38.40;;
2538;SDS011;1280;49.760;9.664;2023-10-19T11:23:02;78.47;;;39.70;;
2538;SDS011;1280;49.760;9.664;2023-10-19T11:25:31;80.77;;;40.47;;
2538;SDS011;1280;49.760;9.664;2023-10-19T11:28:01;78.37;;;39.90;;
2538;SDS011;1280;49.760;9.664;2023-10-19T11:30:43;91.53;;;43.50;;
2538;SDS011;1280;49.760;9.664;2023-10-19T11:33:15;90.10;;;41.67;;
2538;SDS011;1280;49.760;9.664;2023-10-19T11:35:48;94.50;;;42.83;;
2538;SDS011;1280;49.760;9.664;2023-10-19T11:38:16;91.13;;;41.90;;
2538;SDS011;1280;49.760;9.664;2023-10-19T11:40:45;97.10;;;43.23;;
2538;SDS011;1280;49.760;9.664;2023-10-19T11:43:14;102.27;;;44.20;;
2538;SDS011;1280;49.760;9.664;2023-10-19T11:45:43;96.13;;;43.30;;
2538;SDS011;1280;49.760;9.664;2023-10-19T11:48:12;108.03;;;45.40;;
2538;SDS011;1280;49.760;9.664;2023-10-19T11:50:40;94.03;;;44.43;;
2538;SDS011;1280;49.760;9.664;2023-10-19T11:53:08;98.83;;;45.13;;
2538;SDS011;1280;49.760;9.664;2023-10-19T11:55:37;98.03;;;45.20;;
2538;SDS011;1280;49.760;9.664;2023-10-19T11:58:08;88.10;;;44.17;;
2538;SDS011;1280;49.760;9.664;2023-10-19T12:00:41;86.37;;;41.40;;
2538;SDS011;1280;49.760;9.664;2023-10-19T12:03:12;82.90;;;40.70;;
2538;SDS011;1280;49.760;9.664;2023-10-19T12:05:41;87.67;;;42.00;;
2538;SDS011;1280;49.760;9.664;2023-10-19T12:08:10;83.30;;;41.70;;
2538;SDS011;1280;49.760;9.664;2023-10-19T12:10:38;99.40;;;42.97;;
2538;SDS011;1280;49.760;9.664;2023-10-19T12:13:06;94.83;;;43.93;;
2538;SDS011;1280;49.760;9.664;2023-10-19T12:15:34;100.37;;;43.50;;
2538;SDS011;1280;49.760;9.664;2023-10-19T12:18:04;95.53;;;41.53;;
2538;SDS011;1280;49.760;9.664;2023-10-19T12:20:34;100.93;;;44.97;;
2538;SDS011;1280;49.760;9.664;2023-10-19T12:23:04;100.33;;;45.67;;
2538;SDS011;1280;49.760;9.664;2023-10-19T12:25:32;102.40;;;43.33;;
2538;SDS011;1280;49.760;9.664;2023-10-19T12:28:19;104.27;;;43.83;;
2538;SDS011;1280;49.760;9.664;2023-10-19T12:30:47;97.57;;;45.73;;
2538;SDS011;1280;49.760;9.664;2023-10-19T12:33:17;102.97;;;44.17;;
2538;SDS011;1280;49.760;9.664;2023-10-19T12:35:46;114.67;;;47.53;;
2538;SDS011;1280;49.760;9.664;2023-10-19T12:38:20;107.77;;;45.80;;
2538;SDS011;1280;49.760;9.664;2023-10-19T12:40:48;97.53;;;46.27;;
2538;SDS011;1280;49.760;9.664;2023-10-19T12:43:18;95.23;;;44.17;;
2538;SDS011;1280;49.760;9.664;2023-10-19T12:45:48;100.07;;;45.10;;
2538;SDS011;1280;49.760;9.664;2023-10-19T12:48:21;103.23;;;48.33;;
2538;SDS011;1280;49.760;9.664;2023-10-19T12:50:52;109.70;;;49.40;;
2538;SDS011;1280;49.760;9.664;2023-10-19T12:53:20;113.03;;;47.77;;
2538;SDS011;1280;49.760;9.664;2023-10-19T12:55:51;105.93;;;45.57;;
2538;SDS011;1280;49.760;9.664;2023-10-19T12:58:19;102.93;;;43.20;;
2538;SDS011;1280;49.760;9.664;2023-10-19T13:00:47;127.97;;;47.00;;
2538;SDS011;1280;49.760;9.664;2023-10-19T13:03:16;116.43;;;48.27;;
2538;SDS011;1280;49.760;9.664;2023-10-19T13:05:46;112.90;;;48.67;;
2538;SDS011;1280;49.760;9.664;2023-10-19T13:08:16;113.53;;;50.90;;
2538;SDS011;1280;49.760;9.664;2023-10-19T13:10:47;121.23;;;48.50;;
2538;SDS011;1280;49.760;9.664;2023-10-19T13:13:21;109.27;;;48.80;;
2538;SDS011;1280;49.760;9.664;2023-10-19T13:15:50;125.13;;;50.20;;
2538;SDS011;1280;49.760;9.664;2023-10-19T13:18:20;140.73;;;51.77;;
2538;SDS011;1280;49.760;9.664;2023-10-19T13:20:55;125.13;;;51.40;;
2538;SDS011;1280;49.760;9.664;2023-10-19T13:23:24;134.97;;;51.30;;
2538;SDS011;1280;49.760;9.664;2023-10-19T13:25:52;142.07;;;54.50;;
2538;SDS011;1280;49.760;9.664;2023-10-19T13:28:23;148.13;;;56.77;;
2538;SDS011;1280;49.760;9.664;2023-10-19T13:30:53;132.53;;;53.77;;
2538;SDS011;1280;49.760;9.664;2023-10-19T13:33:21;141.47;;;56.87;;
2538;SDS011;1280;49.760;9.664;2023-10-19T13:35:50;142.40;;;57.10;;
2538;SDS011;1280;49.760;9.664;2023-10-19T13:38:20;150.20;;;56.47;;
2538;SDS011;1280;49.760;9.664;2023-10-19T13:40:48;155.13;;;57.17;;
2538;SDS011;1280;49.760;9.664;2023-10-19T13:43:17;155.00;;;59.53;;
2538;SDS011;1280;49.760;9.664;2023-10-19T13:45:46;143.70;;;57.60;;
2538;SDS011;1280;49.760;9.664;2023-10-19T13:48:15;138.53;;;55.43;;
2538;SDS011;1280;49.760;9.664;2023-10-19T13:50:44;138.30;;;54.63;;
2538;SDS011;1280;49.760;9.664;2023-10-19T13:53:15;127.07;;;54.87;;
2538;SDS011;1280;49.760;9.664;2023-10-19T13:55:44;142.10;;;54.47;;
2538;SDS011;1280;49.760;9.664;2023-10-19T13:58:13;150.40;;;56.30;;
2538;SDS011;1280;49.760;9.664;2023-10-19T14:00:41;158.93;;;58.17;;
2538;SDS011;1280;49.760;9.664;2023-10-19T14:03:10;178.37;;;59.00;;
2538;SDS011;1280;49.760;9.664;2023-10-19T14:05:41;145.40;;;53.60;;
2538;SDS011;1280;49.760;9.664;2023-10-19T14:08:14;165.93;;;55.30;;
2538;SDS011;1280;49.760;9.664;2023-10-19T14:10:45;165.17;;;56.70;;
2538;SDS011;1280;49.760;9.664;2023-10-19T14:13:13;161.93;;;57.90;;
2538;SDS011;1280;49.760;9.664;2023-10-19T14:15:42;162.00;;;55.50;;
2538;SDS011;1280;49.760;9.664;2023-10-19T14:18:10;161.73;;;55.20;;
2538;SDS011;1280;49.760;9.664;2023-10-19T14:20:38;173.67;;;58.43;;
2538;SDS011;1280;49.760;9.664;2023-10-19T14:23:07;174.57;;;58.90;;
2538;SDS011;1280;49.760;9.664;2023-10-19T14:25:38;170.50;;;58.53;;
2538;SDS011;1280;49.760;9.664;2023-10-19T14:28:08;202.50;;;60.10;;
2538;SDS011;1280;49.760;9.664;2023-10-19T14:30:36;183.67;;;61.60;;
2538;SDS011;1280;49.760;9.664;2023-10-19T14:33:04;215.87;;;64.17;;
2538;SDS011;1280;49.760;9.664;2023-10-19T14:35:37;190.80;;;61.53;;
2538;SDS011;1280;49.760;9.664;2023-10-19T14:38:09;176.63;;;58.80;;
2538;SDS011;1280;49.760;9.664;2023-10-19T14:40:40;226.70;;;78.00;;
2538;SDS011;1280;49.760;9.664;2023-10-19T14:43:12;248.73;;;83.90;;
2538;SDS011;1280;49.760;9.664;2023-10-19T14:45:40;240.87;;;82.67;;
2538;SDS011;1280;49.760;9.664;2023-10-19T14:48:09;260.20;;;91.63;;
2538;SDS011;1280;49.760;9.664;2023-10-19T14:50:37;242.87;;;90.53;;
2538;SDS011;1280;49.760;9.664;2023-10-19T14:53:07;231.67;;;84.90;;
2538;SDS011;1280;49.760;9.664;2023-10-19T14:55:35;273.43;;;106.17;;
2538;SDS011;1280;49.760;9.664;2023-10-19T14:58:03;235.30;;;94.33;;
2538;SDS011;1280;49.760;9.664;2023-10-19T15:00:34;230.53;;;90.30;;
2538;SDS011;1280;49.760;9.664;2023-10-19T15:03:04;289.63;;;101.00;;
2538;SDS011;1280;49.760;9.664;2023-10-19T15:05:35;245.80;;;82.20;;
2538;SDS011;1280;49.760;9.664;2023-10-19T15:08:04;230.70;;;74.03;;